createdAt,value
2022-11-24T00:02:31.476Z,34.60
2022-11-24T00:05:05.533Z,33.80
2022-11-24T00:07:39.256Z,49.00
2022-11-24T00:10:12.667Z,39.03
2022-11-24T00:12:46.197Z,35.58
2022-11-24T00:15:19.565Z,42.53
2022-11-24T00:17:54.619Z,34.15
2022-11-24T00:20:28.200Z,41.10
2022-11-24T00:23:01.671Z,39.33
2022-11-24T00:25:35.355Z,33.67
2022-11-24T00:28:08.678Z,47.03
2022-11-24T00:30:42.385Z,40.65
2022-11-24T00:33:17.317Z,38.58
2022-11-24T00:35:56.249Z,37.40
2022-11-24T00:38:29.746Z,37.83
2022-11-24T00:41:03.093Z,29.95
2022-11-24T00:43:36.611Z,37.03
2022-11-24T00:46:10.212Z,37.60
2022-11-24T00:48:45.043Z,34.20
2022-11-24T00:51:19.857Z,37.88
2022-11-24T00:53:53.512Z,40.63
2022-11-24T00:56:31.235Z,41.53
2022-11-24T00:59:05.524Z,34.58
2022-11-24T01:01:39.198Z,34.83
2022-11-24T01:04:14.008Z,32.58
2022-11-24T01:06:47.512Z,30.80
2022-11-24T01:09:21.062Z,36.53
2022-11-24T01:12:04.313Z,31.27
2022-11-24T01:14:37.779Z,27.45
2022-11-24T01:17:11.576Z,32.55
2022-11-24T01:19:47.583Z,29.67
2022-11-24T01:22:20.921Z,30.25
2022-11-24T01:24:54.544Z,36.20
2022-11-24T01:27:27.912Z,30.13
2022-11-24T01:30:01.813Z,29.00
2022-11-24T01:32:36.351Z,35.08
2022-11-24T01:35:11.722Z,30.08
2022-11-24T01:37:45.040Z,34.05
2022-11-24T01:40:18.635Z,31.58
2022-11-24T01:42:53.783Z,26.90
2022-11-24T01:45:35.498Z,28.38
2022-11-24T01:48:15.897Z,30.65
2022-11-24T01:50:56.151Z,34.42
2022-11-24T01:53:29.621Z,25.98
2022-11-24T01:56:03.712Z,29.33
2022-11-24T01:58:38.971Z,32.95
2022-11-24T02:01:12.850Z,28.10
2022-11-24T02:03:48.452Z,30.50
2022-11-24T02:06:27.669Z,29.25
2022-11-24T02:09:07.405Z,30.40
2022-11-24T02:11:42.893Z,30.35
2022-11-24T02:14:19.443Z,35.22
2022-11-24T02:16:53.376Z,29.55
2022-11-24T02:19:42.831Z,31.90
2022-11-24T02:22:24.295Z,44.35
2022-11-24T02:25:05.649Z,31.52
2022-11-24T02:27:40.410Z,34.95
2022-11-24T02:30:13.932Z,27.38
2022-11-24T02:32:47.258Z,37.05
2022-11-24T02:35:21.028Z,32.63
2022-11-24T02:37:54.354Z,32.17
2022-11-24T02:40:30.465Z,31.08
2022-11-24T02:43:10.879Z,32.40
2022-11-24T02:45:44.415Z,39.35
2022-11-24T02:48:18.314Z,35.22
2022-11-24T02:50:51.668Z,31.55
2022-11-24T02:53:25.339Z,29.55
2022-11-24T02:55:58.680Z,30.67
2022-11-24T02:58:33.746Z,33.88
2022-11-24T03:01:07.188Z,34.00
2022-11-24T03:03:40.793Z,30.13
2022-11-24T03:06:14.132Z,24.92
2022-11-24T03:08:47.632Z,31.17
2022-11-24T03:11:21.283Z,29.23
2022-11-24T03:13:56.296Z,31.27
2022-11-24T03:16:29.843Z,34.30
2022-11-24T03:19:03.484Z,31.00
2022-11-24T03:21:37.908Z,30.02
2022-11-24T03:24:11.445Z,36.97
2022-11-24T03:26:44.860Z,32.10
2022-11-24T03:29:19.928Z,31.05
2022-11-24T03:31:53.415Z,31.88
2022-11-24T03:34:26.743Z,38.33
2022-11-24T03:37:00.570Z,30.45
2022-11-24T03:39:33.927Z,32.08
2022-11-24T03:42:07.816Z,29.42
2022-11-24T03:44:42.691Z,33.13
2022-11-24T03:47:16.051Z,30.80
2022-11-24T03:49:49.848Z,26.17
2022-11-24T03:52:23.174Z,27.13
2022-11-24T03:54:56.692Z,30.85
2022-11-24T03:57:30.291Z,31.65
2022-11-24T04:00:06.955Z,29.80
2022-11-24T04:02:41.357Z,38.00
2022-11-24T04:05:14.964Z,25.02
2022-11-24T04:07:48.383Z,32.22
2022-11-24T04:10:21.760Z,35.00
2022-11-24T04:12:54.453Z,34.65
2022-11-24T04:15:29.224Z,33.67
2022-11-24T04:18:02.751Z,36.78
2022-11-24T04:20:36.267Z,33.97
2022-11-24T04:23:10.491Z,28.08
2022-11-24T04:25:44.196Z,34.47
2022-11-24T04:28:18.379Z,32.35
2022-11-24T04:30:53.308Z,45.17
2022-11-24T04:33:26.678Z,32.35
2022-11-24T04:36:00.234Z,37.85
2022-11-24T04:39:23.083Z,29.42
2022-11-24T04:41:27.460Z,34.30
2022-11-24T04:44:01.112Z,28.70
2022-11-24T04:46:35.902Z,35.45
2022-11-24T04:49:11.927Z,27.90
2022-11-24T04:51:45.384Z,26.02
2022-11-24T04:54:18.898Z,24.95
2022-11-24T04:56:53.250Z,30.23
2022-11-24T04:59:26.808Z,32.45
2022-11-24T05:02:01.675Z,33.72
2022-11-24T05:04:35.680Z,30.30
2022-11-24T05:07:14.974Z,34.88
2022-11-24T05:10:08.903Z,36.58
2022-11-24T05:12:45.749Z,30.48
2022-11-24T05:15:21.832Z,30.17
2022-11-24T05:17:57.272Z,26.42
2022-11-24T05:20:30.588Z,34.30
2022-11-24T05:23:05.170Z,23.33
2022-11-24T05:25:39.722Z,28.35
2022-11-24T05:28:14.887Z,30.00
2022-11-24T05:30:48.184Z,33.72
2022-11-24T05:33:23.173Z,30.17
2022-11-24T05:35:57.050Z,36.88
2022-11-24T05:38:31.084Z,30.27
2022-11-24T05:41:05.898Z,32.53
2022-11-24T05:43:39.194Z,35.30
2022-11-24T05:46:12.714Z,37.15
2022-11-24T05:48:47.505Z,38.47
2022-11-24T05:51:20.869Z,41.72
2022-11-24T05:53:54.136Z,38.47
2022-11-24T05:56:27.401Z,42.38
2022-11-24T05:59:04.144Z,38.60
2022-11-24T06:01:40.129Z,44.97
2022-11-24T06:04:15.221Z,37.42
2022-11-24T06:06:48.630Z,40.00
2022-11-24T06:09:22.130Z,40.03
2022-11-24T06:11:55.469Z,34.60
2022-11-24T06:14:28.716Z,34.60
2022-11-24T06:17:02.511Z,41.00
2022-11-24T06:19:41.744Z,40.25
2022-11-24T06:22:15.600Z,40.40
2022-11-24T06:24:50.654Z,31.95
2022-11-24T06:27:24.227Z,42.33
2022-11-24T06:29:57.504Z,43.45
2022-11-24T06:32:30.797Z,38.45
2022-11-24T06:35:06.509Z,35.40
2022-11-24T06:37:40.207Z,36.25
2022-11-24T06:40:13.973Z,35.42
2022-11-24T06:42:52.222Z,40.72
2022-11-24T06:45:25.663Z,38.65
2022-11-24T06:47:58.930Z,37.28
2022-11-24T06:50:33.946Z,36.40
2022-11-24T06:53:07.931Z,29.02
2022-11-24T06:55:41.965Z,38.47
2022-11-24T06:58:15.285Z,41.53
2022-11-24T07:00:48.628Z,33.63
2022-11-24T07:03:22.102Z,35.85
2022-11-24T07:05:59.055Z,34.33
2022-11-24T07:08:32.302Z,33.60
2022-11-24T07:11:07.130Z,35.97
2022-11-24T07:13:40.429Z,33.80
2022-11-24T07:16:15.268Z,34.92
2022-11-24T07:18:49.650Z,29.38
2022-11-24T07:21:25.986Z,32.75
2022-11-24T07:23:59.817Z,34.50
2022-11-24T07:26:37.241Z,34.55
2022-11-24T07:29:10.570Z,35.28
2022-11-24T07:31:45.694Z,31.05
2022-11-24T07:34:20.137Z,38.90
2022-11-24T07:36:54.809Z,34.40
2022-11-24T07:39:28.072Z,37.00
2022-11-24T07:42:01.677Z,27.15
2022-11-24T07:44:35.178Z,30.70
2022-11-24T07:47:08.541Z,32.40
2022-11-24T07:49:41.848Z,42.58
2022-11-24T07:52:16.474Z,38.92
2022-11-24T07:54:52.427Z,31.20
2022-11-24T07:57:25.702Z,33.75
2022-11-24T07:59:58.967Z,43.35
2022-11-24T08:02:32.320Z,37.88
2022-11-24T08:05:06.086Z,33.35
2022-11-24T08:07:40.769Z,39.08
2022-11-24T08:10:14.114Z,26.98
2022-11-24T08:12:47.462Z,35.85
2022-11-24T08:15:20.739Z,30.75
2022-11-24T08:17:54.011Z,34.10
2022-11-24T08:20:29.754Z,39.35
2022-11-24T08:23:04.788Z,33.42
2022-11-24T08:25:38.034Z,30.33
2022-11-24T08:28:11.289Z,23.33
2022-11-24T08:30:44.536Z,25.95
2022-11-24T08:33:17.783Z,29.35
2022-11-24T08:35:51.211Z,29.27
2022-11-24T08:38:25.832Z,28.10
2022-11-24T08:41:02.908Z,24.13
2022-11-24T08:43:36.764Z,22.25
2022-11-24T08:46:12.216Z,29.63
2022-11-24T08:48:48.230Z,26.65
2022-11-24T08:51:23.716Z,23.10
2022-11-24T08:53:59.668Z,23.48
2022-11-24T08:56:34.313Z,29.55
2022-11-24T08:59:08.117Z,26.85
2022-11-24T09:01:41.806Z,28.98
2022-11-24T09:04:15.351Z,27.85
2022-11-24T09:06:48.836Z,26.13
2022-11-24T09:09:23.458Z,23.02
2022-11-24T09:11:57.060Z,35.47
2022-11-24T09:14:30.568Z,29.48
2022-11-24T09:17:04.221Z,31.70
2022-11-24T09:19:37.716Z,32.55
2022-11-24T09:22:10.973Z,29.42
2022-11-24T09:24:45.624Z,25.42
2022-11-24T09:27:19.225Z,28.75
2022-11-24T09:29:52.474Z,29.67
2022-11-24T09:32:26.285Z,29.38
2022-11-24T09:35:02.415Z,24.23
2022-11-24T09:37:36.231Z,24.88
2022-11-24T09:40:14.968Z,26.80
2022-11-24T09:42:58.786Z,22.67
2022-11-24T09:48:42.722Z,21.13
2022-11-24T09:51:16.843Z,23.73
2022-11-24T09:53:55.151Z,24.63
2022-11-24T09:56:32.472Z,20.15
2022-11-24T09:59:11.744Z,19.55
2022-11-24T10:01:48.348Z,21.00
2022-11-24T10:04:25.523Z,27.15
2022-11-24T10:07:08.363Z,24.92
2022-11-24T10:09:54.382Z,29.80
2022-11-24T10:12:42.228Z,25.40
2022-11-24T10:15:28.285Z,23.50
2022-11-24T10:18:17.195Z,22.25
2022-11-24T10:21:00.546Z,28.58
2022-11-24T10:24:09.565Z,25.90
2022-11-24T10:26:48.168Z,26.50
2022-11-24T10:29:29.086Z,23.35
2022-11-24T10:32:06.206Z,25.67
2022-11-24T10:34:44.635Z,26.05
2022-11-24T10:37:24.754Z,23.15
2022-11-24T10:40:05.335Z,26.25
2022-11-24T10:42:38.742Z,26.60
2022-11-24T10:45:15.899Z,30.58
2022-11-24T10:47:50.475Z,26.25
2022-11-24T10:50:26.324Z,24.65
2022-11-24T10:53:07.212Z,27.38
2022-11-24T10:55:59.830Z,31.27
2022-11-24T10:58:38.035Z,29.58
2022-11-24T11:01:30.148Z,24.60
2022-11-24T11:04:03.506Z,29.02
2022-11-24T11:06:38.131Z,28.30
2022-11-24T11:09:20.452Z,28.10
2022-11-24T11:11:55.562Z,33.40
2022-11-24T11:14:35.582Z,29.00
2022-11-24T11:17:33.943Z,28.75
2022-11-24T11:20:17.782Z,25.17
2022-11-24T11:22:51.871Z,29.45
2022-11-24T11:25:30.617Z,32.75
2022-11-24T11:28:29.258Z,22.10
2022-11-24T11:31:22.141Z,26.02
2022-11-24T11:34:03.626Z,30.73
2022-11-24T11:36:41.618Z,31.90
2022-11-24T11:39:27.931Z,25.83
2022-11-24T11:42:25.757Z,31.63
2022-11-24T11:45:13.114Z,29.77
2022-11-24T11:47:50.960Z,25.17
2022-11-24T11:50:28.785Z,35.13
2022-11-24T11:53:14.908Z,26.60
2022-11-24T11:55:59.594Z,30.58
2022-11-24T11:59:06.322Z,29.05
2022-11-24T12:02:14.479Z,27.95
2022-11-24T12:04:53.873Z,33.80
2022-11-24T12:07:43.707Z,28.58
2022-11-24T12:10:25.723Z,33.13
2022-11-24T12:13:24.033Z,33.35
2022-11-24T12:16:00.128Z,35.25
2022-11-24T12:18:57.260Z,28.65
2022-11-24T12:21:39.897Z,26.98
2022-11-24T12:24:22.721Z,32.97
2022-11-24T12:27:00.011Z,31.23
2022-11-24T12:30:06.966Z,28.45
2022-11-24T12:33:10.728Z,27.13
2022-11-24T12:35:45.741Z,33.47
2022-11-24T12:38:43.948Z,26.67
2022-11-24T12:41:41.832Z,31.30
2022-11-24T12:44:36.695Z,27.90
2022-11-24T12:47:17.911Z,28.67
2022-11-24T12:50:03.920Z,36.60
2022-11-24T12:52:41.684Z,29.75
2022-11-24T12:55:19.514Z,26.65
2022-11-24T12:58:09.373Z,29.50
2022-11-24T13:00:55.861Z,32.47
2022-11-24T13:03:38.255Z,28.02
2022-11-24T13:06:17.955Z,26.25
2022-11-24T13:08:51.677Z,31.10
2022-11-24T13:11:41.323Z,43.67
2022-11-24T13:14:20.237Z,34.72
2022-11-24T13:17:28.221Z,34.72
2022-11-24T13:19:52.398Z,29.33
2022-11-24T13:22:27.086Z,30.52
2022-11-24T13:25:17.353Z,31.90
2022-11-24T13:27:53.482Z,35.75
2022-11-24T13:30:59.749Z,32.45
2022-11-24T13:33:36.089Z,28.77
2022-11-24T13:36:35.063Z,34.33
2022-11-24T13:39:21.179Z,26.83
2022-11-24T13:42:03.570Z,27.52
2022-11-24T13:44:53.624Z,32.70
2022-11-24T13:47:45.143Z,36.42
2022-11-24T13:51:10.071Z,32.30
2022-11-24T13:53:47.660Z,28.05
2022-11-24T13:56:30.636Z,30.88
2022-11-24T13:59:17.340Z,25.00
2022-11-24T14:01:58.483Z,28.15
2022-11-24T14:04:33.239Z,32.60
2022-11-24T14:07:09.647Z,31.23
2022-11-24T14:09:47.108Z,32.80
2022-11-24T14:12:22.349Z,27.15
2022-11-24T14:15:13.888Z,25.55
2022-11-24T14:17:47.148Z,26.92
2022-11-24T14:20:25.760Z,28.27
2022-11-24T14:23:00.717Z,31.08
2022-11-24T14:25:36.026Z,26.67
2022-11-24T14:28:20.718Z,30.38
2022-11-24T14:31:08.705Z,25.48
2022-11-24T14:33:42.113Z,27.88
2022-11-24T14:36:16.436Z,31.83
2022-11-24T14:38:49.964Z,33.08
2022-11-24T14:41:28.479Z,28.27
2022-11-24T14:44:08.139Z,33.92
2022-11-24T14:46:41.864Z,26.88
2022-11-24T14:49:21.205Z,34.08
2022-11-24T14:51:59.407Z,28.58
2022-11-24T14:54:33.440Z,33.40
2022-11-24T14:57:23.064Z,31.80
2022-11-24T15:00:16.988Z,38.20
2022-11-24T15:02:53.801Z,32.88
2022-11-24T15:05:27.215Z,30.92
2022-11-24T15:08:03.449Z,55.05
2022-11-24T15:10:38.569Z,32.17
2022-11-24T15:13:19.677Z,44.00
2022-11-24T15:16:02.017Z,54.75
2022-11-24T15:18:42.975Z,40.20
2022-11-24T15:21:19.526Z,40.75
2022-11-24T15:24:07.675Z,44.65
2022-11-24T15:26:42.391Z,38.05
2022-11-24T15:29:17.260Z,44.97
2022-11-24T15:31:52.778Z,35.28
2022-11-24T15:34:26.407Z,34.70
2022-11-24T15:36:59.667Z,35.85
2022-11-24T15:39:32.960Z,39.70
2022-11-24T15:42:06.339Z,39.85
2022-11-24T15:44:41.015Z,38.42
2022-11-24T15:47:14.380Z,37.47
2022-11-24T15:49:47.777Z,46.03
2022-11-24T15:52:21.106Z,71.03
2022-11-24T15:54:57.163Z,41.85
2022-11-24T15:57:30.522Z,41.40
2022-11-24T16:00:06.131Z,91.63
2022-11-24T16:02:45.486Z,37.42
2022-11-24T16:05:19.401Z,39.88
2022-11-24T16:07:52.843Z,33.08
2022-11-24T16:10:29.439Z,24.42
2022-11-24T16:13:02.939Z,25.80
2022-11-24T16:15:38.088Z,27.33
2022-11-24T16:18:13.909Z,27.17
2022-11-24T16:20:47.243Z,42.13
2022-11-24T16:23:21.695Z,28.17
2022-11-24T16:25:54.933Z,27.67
2022-11-24T16:28:28.251Z,26.65
2022-11-24T16:31:03.001Z,49.00
2022-11-24T16:33:38.679Z,38.28
2022-11-24T16:36:12.163Z,28.45
2022-11-24T16:38:45.598Z,21.60
2022-11-24T16:41:18.924Z,25.10
2022-11-24T16:43:53.053Z,102.40
2022-11-24T16:46:28.942Z,31.33
2022-11-24T16:49:03.587Z,24.42
2022-11-24T16:51:36.913Z,24.10
2022-11-24T16:54:10.520Z,19.75
2022-11-24T16:56:43.812Z,21.08
2022-11-24T16:59:17.087Z,21.77
2022-11-24T17:01:51.960Z,18.58
2022-11-24T17:04:25.346Z,25.50
2022-11-24T17:06:58.884Z,21.00
2022-11-24T17:09:37.388Z,40.03
2022-11-24T17:12:13.557Z,32.28
2022-11-24T17:15:09.336Z,35.00
2022-11-24T17:18:01.322Z,24.33
2022-11-24T17:20:36.127Z,32.25
2022-11-24T17:23:09.511Z,24.70
2022-11-24T17:25:42.905Z,20.33
2022-11-24T17:28:16.182Z,23.92
2022-11-24T17:30:49.473Z,21.27
2022-11-24T17:33:24.175Z,17.85
2022-11-24T17:36:01.893Z,17.13
2022-11-24T17:38:36.093Z,22.98
2022-11-24T17:41:09.686Z,23.50
2022-11-24T17:43:42.940Z,25.52
2022-11-24T17:46:16.274Z,15.55
2022-11-24T17:48:50.969Z,17.67
2022-11-24T17:51:25.976Z,17.60
2022-11-24T17:53:59.269Z,21.23
2022-11-24T17:56:32.541Z,19.15
2022-11-24T17:59:05.842Z,19.10
2022-11-24T18:01:39.174Z,19.10
2022-11-24T18:04:14.060Z,18.27
2022-11-24T18:06:47.348Z,13.98
2022-11-24T18:09:20.629Z,18.40
2022-11-24T18:11:54.208Z,21.00
2022-11-24T18:14:27.512Z,18.30
2022-11-24T18:17:02.540Z,21.83
2022-11-24T18:19:37.301Z,20.95
2022-11-24T18:22:10.701Z,19.48
2022-11-24T18:24:44.000Z,25.02
2022-11-24T18:27:17.287Z,32.65
2022-11-24T18:29:55.971Z,18.33
2022-11-24T18:32:29.552Z,22.88
2022-11-24T18:35:04.306Z,23.60
2022-11-24T18:37:43.411Z,22.27
2022-11-24T18:40:16.886Z,24.30
2022-11-24T18:42:50.186Z,34.13
2022-11-24T18:45:23.461Z,23.25
2022-11-24T18:47:56.802Z,21.50
2022-11-24T18:50:31.407Z,24.67
2022-11-24T18:53:04.669Z,23.77
2022-11-24T18:55:37.950Z,27.40
2022-11-24T18:58:11.251Z,23.30
2022-11-24T19:00:44.600Z,24.30
2022-11-24T19:03:17.863Z,25.13
2022-11-24T19:05:52.541Z,22.60
2022-11-24T19:08:25.812Z,18.27
2022-11-24T19:10:59.207Z,25.63
2022-11-24T19:13:32.435Z,22.10
2022-11-24T19:16:12.429Z,24.83
2022-11-24T19:18:50.441Z,45.15
2022-11-24T19:21:28.314Z,24.48
2022-11-24T19:24:05.250Z,17.50
2022-11-24T19:26:39.613Z,25.65
2022-11-24T19:29:12.977Z,18.45
2022-11-24T19:31:46.312Z,20.10
2022-11-24T19:34:19.809Z,17.27
2022-11-24T19:36:54.723Z,19.05
2022-11-24T19:39:28.013Z,18.60
2022-11-24T19:42:01.281Z,15.02
2022-11-24T19:44:34.721Z,19.58
2022-11-24T19:47:08.177Z,14.60
2022-11-24T19:49:41.452Z,15.57
2022-11-24T19:52:16.087Z,15.68
2022-11-24T19:54:49.411Z,17.45
2022-11-24T19:57:22.695Z,17.90
2022-11-24T19:59:55.995Z,16.42
2022-11-24T20:02:35.526Z,16.80
2022-11-24T20:05:09.484Z,16.98
2022-11-24T20:07:44.202Z,15.63
2022-11-24T20:10:17.534Z,15.80
2022-11-24T20:12:50.841Z,16.20
2022-11-24T20:15:24.217Z,17.45
2022-11-24T20:17:59.781Z,17.27
2022-11-24T20:20:33.684Z,12.15
2022-11-24T20:23:08.320Z,15.25
2022-11-24T20:25:41.661Z,15.45
2022-11-24T20:28:14.960Z,13.02
2022-11-24T20:30:48.245Z,16.38
2022-11-24T20:33:21.522Z,25.70
2022-11-24T20:35:54.849Z,15.85
2022-11-24T20:38:30.282Z,18.00
2022-11-24T20:41:08.950Z,13.95
2022-11-24T20:43:43.580Z,16.15
2022-11-24T20:46:19.017Z,14.05
2022-11-24T20:48:52.741Z,14.02
2022-11-24T20:51:28.272Z,17.77
2022-11-24T20:54:04.898Z,12.52
2022-11-24T20:56:40.948Z,16.92
2022-11-24T20:59:15.909Z,14.23
2022-11-24T21:01:50.582Z,17.48
2022-11-24T21:04:25.805Z,17.15
2022-11-24T21:06:59.103Z,14.40
2022-11-24T21:09:33.806Z,14.25
2022-11-24T21:12:07.744Z,13.55
2022-11-24T21:14:41.667Z,12.15
2022-11-24T21:17:15.088Z,9.18
2022-11-24T21:19:48.471Z,17.80
2022-11-24T21:22:21.746Z,13.10
2022-11-24T21:24:56.417Z,15.10
2022-11-24T21:27:29.827Z,18.85
2022-11-24T21:30:03.153Z,12.80
2022-11-24T21:32:36.856Z,11.73
2022-11-24T21:35:10.797Z,44.70
2022-11-24T21:37:44.104Z,35.88
2022-11-24T21:40:18.932Z,24.83
2022-11-24T21:42:52.197Z,20.65
2022-11-24T21:45:25.789Z,16.45
2022-11-24T21:48:01.075Z,17.45
2022-11-24T21:50:34.389Z,32.22
2022-11-24T21:53:09.509Z,49.90
2022-11-24T21:55:44.174Z,37.47
2022-11-24T21:58:17.500Z,20.92
2022-11-24T22:00:50.942Z,26.27
2022-11-24T22:03:24.306Z,38.47
2022-11-24T22:05:59.027Z,31.50
2022-11-24T22:08:32.955Z,17.40
2022-11-24T22:11:09.089Z,30.17
2022-11-24T22:13:42.961Z,58.83
2022-11-24T22:16:18.191Z,31.10
2022-11-24T22:18:52.044Z,15.68
2022-11-24T22:21:30.103Z,30.65
2022-11-24T22:24:04.186Z,15.20
2022-11-24T22:26:39.210Z,50.50
2022-11-24T22:29:12.632Z,15.63
2022-11-24T22:31:46.166Z,11.73
2022-11-24T22:34:19.454Z,18.73
2022-11-24T22:36:52.752Z,15.63
2022-11-24T22:39:26.180Z,16.13
2022-11-24T22:42:00.780Z,21.08
2022-11-24T22:44:34.429Z,13.15
2022-11-24T22:47:07.885Z,17.45
2022-11-24T22:49:41.343Z,9.85
2022-11-24T22:52:16.109Z,15.15
2022-11-24T22:54:49.355Z,12.52
2022-11-24T22:57:24.182Z,15.45
2022-11-24T22:59:57.493Z,16.20
2022-11-24T23:02:31.080Z,10.25
2022-11-24T23:05:04.560Z,9.82
2022-11-24T23:07:38.431Z,13.38
2022-11-24T23:10:12.696Z,7.60
2022-11-24T23:12:47.481Z,9.68
2022-11-24T23:15:20.718Z,13.65
2022-11-24T23:17:54.303Z,10.73
2022-11-24T23:20:27.552Z,10.80
2022-11-24T23:23:00.795Z,11.05
2022-11-24T23:25:34.992Z,12.90
2022-11-24T23:28:09.635Z,10.07
2022-11-24T23:30:43.463Z,9.30
2022-11-24T23:33:16.737Z,15.25
2022-11-24T23:35:49.989Z,10.00
2022-11-24T23:38:28.611Z,9.55
2022-11-24T23:41:04.495Z,8.90
2022-11-24T23:43:41.138Z,12.30
2022-11-24T23:46:16.602Z,8.45
2022-11-24T23:48:50.782Z,9.23
2022-11-24T23:51:25.858Z,10.82
2022-11-24T23:54:00.174Z,11.13
2022-11-24T23:56:34.067Z,9.57
2022-11-24T23:59:11.567Z,8.90
